Time;durP1;ratioP1;P1;durP2;ratioP2;P2;SDS_P1;SDS_P2;PMS_P1;PMS_P2;Temp;Humidity;BMP_temperature;BMP_pressure;BME280_temperature;BME280_humidity;BME280_pressure;Samples;Min_cycle;Max_cycle;Signal;HPM_P1;HPM_P2
2022/09/04 00:00:51;;;;;;;;;;;17.20;77.30;;;;;;4978602;28;20337;-71
2022/09/04 00:03:30;;;;;;;;;;;17.10;77.50;;;;;;4979155;28;20370;-71
2022/09/04 00:05:57;;;;;;;;;;;17.10;77.80;;;;;;4996354;28;19976;-70
2022/09/04 00:08:31;;;;;;;;;;;17.10;77.80;;;;;;4995697;28;19922;-71
2022/09/04 00:11:02;;;;;;;;;;;17.10;78.20;;;;;;4996439;28;19968;-71
2022/09/04 00:13:33;;;;;;;;;;;17.00;78.30;;;;;;4996387;28;19925;-71
2022/09/04 00:16:03;;;;;;;;;;;17.00;77.90;;;;;;4995542;28;19922;-70
2022/09/04 00:18:34;;;;;;;;;;;16.90;77.80;;;;;;4996200;28;19922;-71
2022/09/04 00:21:06;;;;;;;;;;;16.90;78.00;;;;;;4995766;28;20073;-72
2022/09/04 00:23:38;;;;;;;;;;;16.90;78.60;;;;;;4978029;28;19965;-71
2022/09/04 00:26:07;;;;;;;;;;;16.90;78.60;;;;;;4978732;28;20325;-71
2022/09/04 00:28:38;;;;;;;;;;;16.80;78.40;;;;;;4995106;28;19969;-71
2022/09/04 00:31:11;;;;;;;;;;;16.80;78.30;;;;;;4979156;28;19976;-71
2022/09/04 00:33:41;;;;;;;;;;;16.80;78.70;;;;;;4995624;28;20005;-71
2022/09/04 00:36:08;;;;;;;;;;;16.70;79.10;;;;;;4977836;28;19969;-71
2022/09/04 00:38:40;;;;;;;;;;;16.70;79.20;;;;;;4978330;28;19928;-71
2022/09/04 00:41:11;;;;;;;;;;;16.70;78.80;;;;;;4995485;28;20008;-71
2022/09/04 00:43:49;;;;;;;;;;;16.60;79.30;;;;;;4994959;28;20369;-71
2022/09/04 00:46:26;;;;;;;;;;;16.60;79.30;;;;;;4978747;28;20357;-70
2022/09/04 00:49:10;;;;;;;;;;;16.60;78.90;;;;;;4995277;28;19951;-71
2022/09/04 00:51:42;;;;;;;;;;;16.60;79.50;;;;;;4994233;28;19922;-71
2022/09/04 00:54:38;;;;;;;;;;;16.50;79.60;;;;;;4994367;28;19922;-70
2022/09/04 00:57:36;;;;;;;;;;;16.50;79.80;;;;;;4953397;29;19962;-71
2022/09/04 01:00:07;;;;;;;;;;;16.50;79.80;;;;;;4977025;28;20575;-71
2022/09/04 01:02:41;;;;;;;;;;;16.50;79.70;;;;;;4995264;28;19968;-71
2022/09/04 01:05:09;;;;;;;;;;;16.40;80.30;;;;;;4995054;28;20380;-70
2022/09/04 01:07:42;;;;;;;;;;;16.40;79.90;;;;;;4977912;28;19921;-71
2022/09/04 01:10:19;;;;;;;;;;;16.30;80.10;;;;;;4977839;28;19922;-70
2022/09/04 01:12:49;;;;;;;;;;;16.30;80.30;;;;;;4977612;28;19975;-70
2022/09/04 01:15:20;;;;;;;;;;;16.30;80.40;;;;;;4977351;28;19984;-70
2022/09/04 01:17:52;;;;;;;;;;;16.20;80.70;;;;;;4994354;28;19921;-70
2022/09/04 01:20:22;;;;;;;;;;;16.20;81.00;;;;;;4977898;28;20361;-70
2022/09/04 01:23:00;;;;;;;;;;;16.20;80.70;;;;;;4994465;28;20393;-70
2022/09/04 01:25:32;;;;;;;;;;;16.10;80.80;;;;;;4994656;28;19922;-71
2022/09/04 01:28:03;;;;;;;;;;;16.10;80.50;;;;;;4977283;28;19921;-70
2022/09/04 01:30:33;;;;;;;;;;;16.10;81.40;;;;;;4977438;28;19952;-70
2022/09/04 01:33:03;;;;;;;;;;;16.10;81.40;;;;;;4977176;28;19921;-70
2022/09/04 01:35:33;;;;;;;;;;;16.10;82.10;;;;;;4994891;28;19995;-71
2022/09/04 01:38:02;;;;;;;;;;;16.00;82.00;;;;;;4976703;28;19972;-70
2022/09/04 01:40:36;;;;;;;;;;;16.00;82.20;;;;;;4977054;28;20408;-70
2022/09/04 01:43:06;;;;;;;;;;;16.00;82.40;;;;;;4977162;28;19922;-70
2022/09/04 01:45:41;;;;;;;;;;;16.00;82.30;;;;;;4994581;28;19987;-71
2022/09/04 01:48:11;;;;;;;;;;;15.90;82.30;;;;;;4977128;28;20016;-69
2022/09/04 01:50:38;;;;;;;;;;;15.90;82.10;;;;;;4994313;28;19976;-70
2022/09/04 01:53:09;;;;;;;;;;;15.90;82.90;;;;;;4992369;28;19984;-70
2022/09/04 01:55:38;;;;;;;;;;;15.90;83.30;;;;;;4976538;28;19922;-70
2022/09/04 01:58:14;;;;;;;;;;;15.80;83.10;;;;;;4993589;28;19988;-70
2022/09/04 02:00:45;;;;;;;;;;;15.80;82.70;;;;;;4976526;28;20056;-70
2022/09/04 02:03:16;;;;;;;;;;;15.80;83.10;;;;;;4994522;28;19926;-70
2022/09/04 02:05:50;;;;;;;;;;;15.80;83.30;;;;;;4993263;28;20428;-69
2022/09/04 02:08:23;;;;;;;;;;;15.80;83.50;;;;;;4976302;28;19977;-69
2022/09/04 02:10:51;;;;;;;;;;;15.70;83.60;;;;;;4977134;28;19968;-69
2022/09/04 02:13:22;;;;;;;;;;;15.70;83.80;;;;;;4976613;28;19968;-70
2022/09/04 02:15:53;;;;;;;;;;;15.70;83.90;;;;;;4993915;28;20055;-70
2022/09/04 02:18:30;;;;;;;;;;;15.70;83.70;;;;;;4976732;28;20005;-70
2022/09/04 02:21:01;;;;;;;;;;;15.70;84.10;;;;;;4993611;28;19922;-71
2022/09/04 02:23:34;;;;;;;;;;;15.60;84.20;;;;;;4994282;28;19922;-69
2022/09/04 02:26:03;;;;;;;;;;;15.60;84.10;;;;;;4976666;28;20354;-69
2022/09/04 02:28:35;;;;;;;;;;;15.60;84.40;;;;;;4993300;28;20377;-70
2022/09/04 02:31:05;;;;;;;;;;;15.60;84.50;;;;;;4976990;28;19922;-71
2022/09/04 02:33:36;;;;;;;;;;;15.60;84.50;;;;;;4976516;28;19922;-71
2022/09/04 02:36:07;;;;;;;;;;;15.50;84.60;;;;;;4993658;28;20324;-69
2022/09/04 02:38:38;;;;;;;;;;;15.50;84.30;;;;;;4976327;28;20440;-68
2022/09/04 02:41:08;;;;;;;;;;;15.50;84.60;;;;;;4976773;28;20369;-70
2022/09/04 02:43:44;;;;;;;;;;;15.40;84.30;;;;;;4976256;28;19926;-70
2022/09/04 02:46:14;;;;;;;;;;;15.40;85.30;;;;;;4976666;28;20346;-70
2022/09/04 02:48:46;;;;;;;;;;;15.40;85.00;;;;;;4993902;28;19925;-71
2022/09/04 02:51:19;;;;;;;;;;;15.30;84.90;;;;;;4993495;28;20372;-70
2022/09/04 02:53:51;;;;;;;;;;;15.30;85.30;;;;;;4976646;28;19925;-70
2022/09/04 02:56:24;;;;;;;;;;;15.30;86.10;;;;;;4976095;28;19932;-71
2022/09/04 02:58:57;;;;;;;;;;;15.30;86.00;;;;;;4976108;28;19961;-70
2022/09/04 03:01:26;;;;;;;;;;;15.30;86.30;;;;;;4976637;28;19973;-70
2022/09/04 03:04:00;;;;;;;;;;;15.30;86.70;;;;;;4975636;28;19973;-70
2022/09/04 03:06:32;;;;;;;;;;;15.30;85.70;;;;;;4976257;28;19922;-71
2022/09/04 03:09:01;;;;;;;;;;;15.30;86.40;;;;;;4976055;28;19922;-70
2022/09/04 03:11:31;;;;;;;;;;;15.20;86.90;;;;;;4993362;28;19977;-69
2022/09/04 03:14:03;;;;;;;;;;;15.20;86.50;;;;;;4993453;28;19976;-69
2022/09/04 03:16:34;;;;;;;;;;;15.20;86.90;;;;;;4976282;28;19930;-69
2022/09/04 03:19:08;;;;;;;;;;;15.20;87.20;;;;;;4996982;28;19921;-70
2022/09/04 03:21:39;;;;;;;;;;;15.20;87.20;;;;;;4979698;28;20020;-69
2022/09/04 03:24:09;;;;;;;;;;;15.10;86.60;;;;;;4997536;28;20365;-69
2022/09/04 03:26:36;;;;;;;;;;;15.10;87.80;;;;;;4979916;28;19922;-69
2022/09/04 03:29:10;;;;;;;;;;;15.10;87.80;;;;;;4979212;28;20031;-70
2022/09/04 03:31:40;;;;;;;;;;;15.10;87.70;;;;;;4979508;28;19933;-70
2022/09/04 03:34:12;;;;;;;;;;;15.00;87.80;;;;;;4996917;28;19926;-67
2022/09/04 03:36:45;;;;;;;;;;;15.00;88.40;;;;;;4996966;28;20381;-69
2022/09/04 03:39:15;;;;;;;;;;;15.00;88.60;;;;;;4996265;28;19958;-69
2022/09/04 03:41:45;;;;;;;;;;;15.00;88.10;;;;;;4996981;28;19964;-68
2022/09/04 03:44:21;;;;;;;;;;;14.90;87.90;;;;;;4979557;28;19922;-70
2022/09/04 03:46:56;;;;;;;;;;;14.90;89.10;;;;;;4979076;28;20002;-70
2022/09/04 03:49:33;;;;;;;;;;;14.90;89.20;;;;;;4996585;28;19925;-69
2022/09/04 03:52:02;;;;;;;;;;;14.90;89.80;;;;;;4979181;28;20032;-68
2022/09/04 03:54:38;;;;;;;;;;;14.80;89.30;;;;;;4995157;28;19968;-68
2022/09/04 03:57:12;;;;;;;;;;;14.80;90.10;;;;;;4995915;28;20008;-70
2022/09/04 03:59:46;;;;;;;;;;;14.80;89.90;;;;;;4978505;28;19972;-69
2022/09/04 04:02:19;;;;;;;;;;;14.70;90.20;;;;;;4996627;28;19933;-70
2022/09/04 04:05:03;;;;;;;;;;;14.70;89.20;;;;;;4996302;28;19922;-69
2022/09/04 04:07:34;;;;;;;;;;;14.70;90.10;;;;;;4994855;28;19976;-69
2022/09/04 04:10:12;;;;;;;;;;;14.70;90.20;;;;;;4979152;28;19922;-70
2022/09/04 04:12:45;;;;;;;;;;;14.70;90.90;;;;;;4996192;28;20382;-70
2022/09/04 04:15:19;;;;;;;;;;;14.60;90.30;;;;;;4978337;28;19929;-69
2022/09/04 04:17:53;;;;;;;;;;;14.60;90.60;;;;;;4978932;28;19922;-69
2022/09/04 04:20:24;;;;;;;;;;;14.50;91.00;;;;;;4996303;28;19969;-69
2022/09/04 04:23:08;;;;;;;;;;;14.50;90.90;;;;;;4978700;28;19921;-69
2022/09/04 04:25:48;;;;;;;;;;;14.50;90.40;;;;;;4978013;28;19929;-70
2022/09/04 04:28:20;;;;;;;;;;;14.50;91.20;;;;;;4977786;28;20429;-69
2022/09/04 04:30:51;;;;;;;;;;;14.50;91.30;;;;;;4978376;28;19960;-69
2022/09/04 04:33:24;;;;;;;;;;;14.40;91.20;;;;;;4978480;28;20432;-69
2022/09/04 04:35:55;;;;;;;;;;;14.40;91.20;;;;;;4977635;28;19922;-69
2022/09/04 04:38:31;;;;;;;;;;;14.50;91.40;;;;;;4978460;28;19963;-68
2022/09/04 04:41:08;;;;;;;;;;;14.50;91.70;;;;;;4996170;28;20334;-69
2022/09/04 04:43:42;;;;;;;;;;;14.50;91.40;;;;;;4995273;28;20328;-70
2022/09/04 04:46:12;;;;;;;;;;;14.50;91.40;;;;;;4978343;28;19921;-69
2022/09/04 04:49:09;;;;;;;;;;;14.60;91.50;;;;;;4994942;28;19928;-71
2022/09/04 04:51:44;;;;;;;;;;;14.60;91.30;;;;;;4995813;28;19922;-70
2022/09/04 04:54:21;;;;;;;;;;;14.70;91.30;;;;;;4978044;28;19965;-70
2022/09/04 04:56:51;;;;;;;;;;;14.70;91.60;;;;;;4977618;28;20348;-70
2022/09/04 04:59:22;;;;;;;;;;;14.70;91.40;;;;;;4977956;28;19928;-70
2022/09/04 05:01:55;;;;;;;;;;;14.70;91.40;;;;;;4978008;28;19925;-70
2022/09/04 05:04:24;;;;;;;;;;;14.70;91.40;;;;;;4995185;28;19976;-70
2022/09/04 05:06:54;;;;;;;;;;;14.80;91.60;;;;;;4977932;28;19922;-70
2022/09/04 05:09:25;;;;;;;;;;;14.70;91.30;;;;;;4995163;28;19922;-70
2022/09/04 05:11:58;;;;;;;;;;;14.70;91.50;;;;;;4977636;28;20292;-70
2022/09/04 05:14:28;;;;;;;;;;;14.70;91.70;;;;;;4977627;28;19985;-70
2022/09/04 05:16:59;;;;;;;;;;;14.70;91.50;;;;;;4994531;28;19976;-70
2022/09/04 05:19:29;;;;;;;;;;;14.70;91.70;;;;;;4995070;28;19983;-69
2022/09/04 05:22:00;;;;;;;;;;;14.70;91.70;;;;;;4977104;28;19922;-69
2022/09/04 05:24:32;;;;;;;;;;;14.70;91.80;;;;;;4977272;28;19925;-69
2022/09/04 05:27:02;;;;;;;;;;;14.80;91.90;;;;;;4995098;28;20325;-70
2022/09/04 05:29:32;;;;;;;;;;;14.80;91.60;;;;;;4994753;28;19969;-70
2022/09/04 05:32:04;;;;;;;;;;;14.80;91.60;;;;;;4994075;28;20037;-70
2022/09/04 05:34:35;;;;;;;;;;;14.90;91.60;;;;;;4977564;28;19922;-71
2022/09/04 05:37:07;;;;;;;;;;;14.90;91.70;;;;;;4977149;28;19921;-70
2022/09/04 05:39:38;;;;;;;;;;;15.00;91.60;;;;;;4993862;28;20008;-71
2022/09/04 05:42:18;;;;;;;;;;;15.10;91.70;;;;;;4977082;28;19921;-71
2022/09/04 05:44:50;;;;;;;;;;;15.10;91.40;;;;;;4977204;28;19921;-70
2022/09/04 05:47:22;;;;;;;;;;;15.20;91.50;;;;;;4994651;28;20385;-70
2022/09/04 05:50:04;;;;;;;;;;;15.30;91.40;;;;;;4994383;28;19976;-70
2022/09/04 05:52:42;;;;;;;;;;;15.40;91.30;;;;;;4993944;28;20072;-69
2022/09/04 05:55:24;;;;;;;;;;;15.50;91.20;;;;;;4994540;28;20054;-70
2022/09/04 05:58:01;;;;;;;;;;;15.50;90.80;;;;;;4994003;28;19972;-71
2022/09/04 06:00:32;;;;;;;;;;;15.60;90.80;;;;;;4976584;28;19956;-70
2022/09/04 06:03:19;;;;;;;;;;;15.60;90.80;;;;;;4994622;28;19964;-70
2022/09/04 06:05:56;;;;;;;;;;;15.70;90.90;;;;;;4973623;28;19992;-70
2022/09/04 06:08:32;;;;;;;;;;;15.80;90.80;;;;;;4994341;28;19972;-71
2022/09/04 06:11:02;;;;;;;;;;;15.90;90.60;;;;;;4994265;28;19944;-70
2022/09/04 06:13:50;;;;;;;;;;;16.00;90.40;;;;;;4976573;28;19961;-70
2022/09/04 06:16:22;;;;;;;;;;;16.10;90.20;;;;;;4973597;28;20058;-69
2022/09/04 06:18:56;;;;;;;;;;;16.20;89.80;;;;;;4993589;28;19922;-69
2022/09/04 06:21:44;;;;;;;;;;;16.30;90.00;;;;;;4972499;28;19922;-69
2022/09/04 06:24:22;;;;;;;;;;;16.60;89.60;;;;;;4957719;28;20334;-69
2022/09/04 06:26:58;;;;;;;;;;;17.00;87.80;;;;;;4974592;28;19984;-70
2022/09/04 06:29:34;;;;;;;;;;;17.60;85.40;;;;;;4973468;28;19976;-70
2022/09/04 06:32:25;;;;;;;;;;;18.20;83.30;;;;;;4973158;28;19937;-70
2022/09/04 06:35:13;;;;;;;;;;;18.60;81.00;;;;;;4963910;28;19922;-70
2022/09/04 06:37:46;;;;;;;;;;;18.90;80.30;;;;;;4968745;28;19928;-70
2022/09/04 06:40:22;;;;;;;;;;;19.20;80.00;;;;;;4974684;28;19973;-69
2022/09/04 06:42:54;;;;;;;;;;;19.20;79.50;;;;;;4973070;28;19973;-70
2022/09/04 06:45:25;;;;;;;;;;;19.50;78.90;;;;;;4973459;28;20373;-70
2022/09/04 06:48:03;;;;;;;;;;;20.20;78.40;;;;;;4973475;28;20362;-70
2022/09/04 06:50:33;;;;;;;;;;;20.70;75.70;;;;;;4974309;28;19926;-69
2022/09/04 06:53:06;;;;;;;;;;;21.10;74.70;;;;;;4976785;28;19922;-68
2022/09/04 06:55:38;;;;;;;;;;;21.60;71.90;;;;;;4976814;28;19922;-69
2022/09/04 06:58:22;;;;;;;;;;;22.00;70.90;;;;;;4978074;28;19922;-70
2022/09/04 07:00:52;;;;;;;;;;;22.40;70.30;;;;;;4978197;28;19961;-69
2022/09/04 07:03:27;;;;;;;;;;;22.50;69.80;;;;;;4976123;28;19922;-70
2022/09/04 07:05:59;;;;;;;;;;;23.10;68.90;;;;;;4977958;28;19922;-68
2022/09/04 07:08:32;;;;;;;;;;;23.20;68.20;;;;;;4977962;28;19973;-70
2022/09/04 07:11:03;;;;;;;;;;;23.50;68.40;;;;;;4977724;28;19984;-71
2022/09/04 07:13:37;;;;;;;;;;;23.70;67.20;;;;;;4977728;28;20067;-70
2022/09/04 07:16:22;;;;;;;;;;;24.00;66.40;;;;;;4978104;28;19985;-71
2022/09/04 07:19:06;;;;;;;;;;;24.00;66.60;;;;;;4974534;28;19976;-68
2022/09/04 07:21:36;;;;;;;;;;;23.90;66.60;;;;;;4958055;28;20029;-71
2022/09/04 07:24:05;;;;;;;;;;;24.20;66.10;;;;;;4972220;28;19922;-71
2022/09/04 07:26:37;;;;;;;;;;;24.40;66.10;;;;;;4968253;28;19922;-71
2022/09/04 07:29:15;;;;;;;;;;;25.50;65.90;;;;;;4971906;28;19966;-72
2022/09/04 07:31:45;;;;;;;;;;;25.90;64.30;;;;;;4972601;28;19922;-71
2022/09/04 07:34:16;;;;;;;;;;;26.20;62.80;;;;;;4969460;28;19976;-72
2022/09/04 07:36:47;;;;;;;;;;;26.40;62.70;;;;;;4973559;28;19953;-72
2022/09/04 07:39:19;;;;;;;;;;;26.50;62.50;;;;;;4974925;28;19922;-73
2022/09/04 07:41:51;;;;;;;;;;;26.80;62.40;;;;;;4969564;28;19966;-71
2022/09/04 07:44:22;;;;;;;;;;;26.80;61.90;;;;;;4965451;28;19953;-72
2022/09/04 07:46:52;;;;;;;;;;;26.80;62.30;;;;;;4982537;28;20285;-73
2022/09/04 07:49:23;;;;;;;;;;;26.90;62.90;;;;;;4974194;28;19922;-72
2022/09/04 07:51:53;;;;;;;;;;;26.40;61.80;;;;;;4973339;28;20267;-71
2022/09/04 07:54:29;;;;;;;;;;;27.00;62.10;;;;;;4967092;28;19944;-72
2022/09/04 07:57:04;;;;;;;;;;;26.90;62.10;;;;;;4971312;28;19922;-71
2022/09/04 07:59:40;;;;;;;;;;;26.90;62.10;;;;;;4970744;28;19922;-73
2022/09/04 08:02:14;;;;;;;;;;;27.30;62.80;;;;;;4969685;28;19921;-71
2022/09/04 08:04:51;;;;;;;;;;;27.60;62.00;;;;;;4970098;28;19969;-71
2022/09/04 08:07:20;;;;;;;;;;;28.20;61.50;;;;;;4970891;28;20016;-71
2022/09/04 08:09:55;;;;;;;;;;;28.30;61.20;;;;;;4967994;28;19925;-71
2022/09/04 08:12:29;;;;;;;;;;;28.30;60.90;;;;;;4972568;28;19926;-72
2022/09/04 08:15:02;;;;;;;;;;;28.20;60.90;;;;;;4968891;28;19973;-71
2022/09/04 08:17:49;;;;;;;;;;;28.30;60.50;;;;;;4973795;28;20389;-72
2022/09/04 08:20:27;;;;;;;;;;;28.80;60.80;;;;;;4941730;28;20465;-73
2022/09/04 08:22:57;;;;;;;;;;;28.50;59.80;;;;;;4974543;28;19922;-72
2022/09/04 08:25:27;;;;;;;;;;;28.50;60.40;;;;;;4973218;28;20381;-72
2022/09/04 08:28:01;;;;;;;;;;;28.70;59.70;;;;;;4965476;28;19978;-72
2022/09/04 08:30:31;;;;;;;;;;;29.40;59.80;;;;;;4970978;28;19984;-71
2022/09/04 08:33:22;;;;;;;;;;;30.00;59.70;;;;;;4972047;28;19925;-71
2022/09/04 08:35:53;;;;;;;;;;;30.40;59.20;;;;;;4955586;28;19930;-72
2022/09/04 08:38:30;;;;;;;;;;;30.80;59.30;;;;;;4971355;28;19926;-70
2022/09/04 08:41:15;;;;;;;;;;;30.60;58.40;;;;;;4968772;28;20214;-72
2022/09/04 08:43:57;;;;;;;;;;;31.10;58.10;;;;;;4970831;28;19922;-72
2022/09/04 08:46:36;;;;;;;;;;;31.40;57.80;;;;;;4967065;28;20374;-72
2022/09/04 08:49:19;;;;;;;;;;;31.40;57.80;;;;;;4968697;28;19947;-72
2022/09/04 08:52:01;;;;;;;;;;;31.20;57.60;;;;;;4972642;28;20388;-71
2022/09/04 08:54:43;;;;;;;;;;;31.40;59.10;;;;;;4966127;28;19922;-72
2022/09/04 08:57:20;;;;;;;;;;;32.00;57.10;;;;;;4971251;28;20016;-72
2022/09/04 09:00:01;;;;;;;;;;;32.30;57.50;;;;;;4973605;28;20364;-71
2022/09/04 09:02:46;;;;;;;;;;;32.50;56.70;;;;;;4966402;28;19922;-72
2022/09/04 09:05:28;;;;;;;;;;;32.40;57.70;;;;;;4969194;28;19926;-71
2022/09/04 09:08:06;;;;;;;;;;;32.20;57.20;;;;;;4956444;28;19922;-72
2022/09/04 09:10:37;;;;;;;;;;;31.90;56.90;;;;;;4971197;28;19922;-73
2022/09/04 09:13:36;;;;;;;;;;;32.20;57.60;;;;;;4969372;28;19923;-71
2022/09/04 09:16:18;;;;;;;;;;;32.70;57.80;;;;;;4969926;28;20023;-73
2022/09/04 09:18:57;;;;;;;;;;;32.90;56.40;;;;;;4968957;28;19933;-72
2022/09/04 09:21:29;;;;;;;;;;;32.70;56.50;;;;;;4972481;28;19922;-71
2022/09/04 09:24:10;;;;;;;;;;;32.40;56.50;;;;;;4965809;28;19926;-73
2022/09/04 09:26:38;;;;;;;;;;;32.30;56.60;;;;;;4965228;28;20405;-71
2022/09/04 09:29:35;;;;;;;;;;;32.30;56.70;;;;;;4971592;28;19922;-72
2022/09/04 09:32:14;;;;;;;;;;;32.20;56.30;;;;;;4910458;29;20422;-69
2022/09/04 09:34:59;;;;;;;;;;;32.50;56.60;;;;;;4959872;28;19973;-71
2022/09/04 09:37:32;;;;;;;;;;;32.70;56.40;;;;;;4966867;28;19988;-70
2022/09/04 09:40:26;;;;;;;;;;;32.30;55.90;;;;;;4968459;28;20133;-70
2022/09/04 09:43:10;;;;;;;;;;;32.50;56.60;;;;;;4932601;28;19930;-68
2022/09/04 09:45:47;;;;;;;;;;;32.70;56.10;;;;;;4966786;28;20009;-69
2022/09/04 09:48:26;;;;;;;;;;;32.60;56.70;;;;;;4973612;28;19922;-70
2022/09/04 09:51:03;;;;;;;;;;;32.10;56.50;;;;;;4971077;28;19926;-73
2022/09/04 09:53:51;;;;;;;;;;;32.30;57.20;;;;;;4971366;28;19922;-72
2022/09/04 09:56:46;;;;;;;;;;;32.30;56.60;;;;;;4984347;28;19957;-69
2022/09/04 09:59:45;;;;;;;;;;;32.10;57.00;;;;;;4938483;28;19926;-69
2022/09/04 10:02:39;;;;;;;;;;;32.30;56.90;;;;;;4963822;28;19969;-69
2022/09/04 10:05:13;;;;;;;;;;;32.10;56.20;;;;;;4964407;28;19926;-68
2022/09/04 10:07:49;;;;;;;;;;;32.50;56.50;;;;;;4963967;28;19993;-71
2022/09/04 10:10:40;;;;;;;;;;;32.50;55.60;;;;;;4964412;28;20436;-70
2022/09/04 10:13:21;;;;;;;;;;;32.80;55.70;;;;;;4968552;28;19930;-70
2022/09/04 10:16:10;;;;;;;;;;;32.40;56.10;;;;;;4965343;28;20377;-70
2022/09/04 10:19:10;;;;;;;;;;;32.50;56.10;;;;;;4963854;28;20345;-69
2022/09/04 10:21:55;;;;;;;;;;;33.40;55.50;;;;;;4982348;28;19922;-70
2022/09/04 10:24:40;;;;;;;;;;;33.70;54.90;;;;;;4983859;28;20015;-70
2022/09/04 10:27:26;;;;;;;;;;;33.90;55.60;;;;;;4921331;28;19925;-70
2022/09/04 10:30:04;;;;;;;;;;;34.50;54.70;;;;;;4975093;28;19925;-70
2022/09/04 10:32:39;;;;;;;;;;;34.50;54.10;;;;;;4973058;28;19968;-71
2022/09/04 10:35:24;;;;;;;;;;;34.40;54.30;;;;;;4972594;28;19922;-69
2022/09/04 10:38:05;;;;;;;;;;;33.90;54.00;;;;;;4971359;28;19969;-69
2022/09/04 10:40:37;;;;;;;;;;;33.90;54.20;;;;;;4966391;28;20011;-71
2022/09/04 10:43:18;;;;;;;;;;;33.80;54.80;;;;;;4985262;28;19917;-71
2022/09/04 10:45:50;;;;;;;;;;;33.60;54.60;;;;;;4963256;28;19926;-70
2022/09/04 10:48:35;;;;;;;;;;;33.10;55.20;;;;;;4985114;28;19976;-71
2022/09/04 10:51:08;;;;;;;;;;;33.20;55.00;;;;;;4969173;28;19988;-72
2022/09/04 10:53:46;;;;;;;;;;;33.50;55.40;;;;;;4983460;28;20417;-72
2022/09/04 10:56:20;;;;;;;;;;;34.00;55.70;;;;;;4987271;28;19949;-73
2022/09/04 10:59:03;;;;;;;;;;;33.60;55.00;;;;;;4972509;28;20356;-73
2022/09/04 11:01:54;;;;;;;;;;;33.10;54.80;;;;;;4973476;28;19926;-73
2022/09/04 11:04:38;;;;;;;;;;;32.90;55.30;;;;;;4972418;28;19926;-73
2022/09/04 11:07:11;;;;;;;;;;;33.00;55.50;;;;;;4973848;28;19977;-72
2022/09/04 11:09:52;;;;;;;;;;;32.80;55.70;;;;;;4973251;28;19965;-72
2022/09/04 11:12:32;;;;;;;;;;;32.60;55.50;;;;;;4973823;28;20329;-71
2022/09/04 11:15:06;;;;;;;;;;;32.80;55.70;;;;;;4973590;28;19992;-71
2022/09/04 11:17:56;;;;;;;;;;;33.00;56.10;;;;;;4973412;28;19922;-71
2022/09/04 11:20:39;;;;;;;;;;;33.50;55.40;;;;;;4974628;28;20336;-71
2022/09/04 11:23:17;;;;;;;;;;;33.70;54.90;;;;;;4985749;28;19992;-71
2022/09/04 11:26:05;;;;;;;;;;;33.80;55.20;;;;;;4984347;28;19934;-72
2022/09/04 11:28:47;;;;;;;;;;;34.10;54.80;;;;;;4982387;28;19958;-71
2022/09/04 11:31:23;;;;;;;;;;;34.30;54.60;;;;;;4986950;28;19937;-71
2022/09/04 11:34:10;;;;;;;;;;;34.20;54.50;;;;;;4968446;28;19960;-71
2022/09/04 11:36:58;;;;;;;;;;;34.60;55.00;;;;;;4984035;28;19922;-73
2022/09/04 11:39:35;;;;;;;;;;;34.40;54.40;;;;;;4984649;28;19921;-72
2022/09/04 11:42:39;;;;;;;;;;;34.50;54.70;;;;;;4974767;28;19926;-72
2022/09/04 11:45:21;;;;;;;;;;;34.20;54.70;;;;;;4903800;29;19970;-72
2022/09/04 11:48:02;;;;;;;;;;;34.00;54.80;;;;;;4889293;29;20694;-71
2022/09/04 11:50:39;;;;;;;;;;;33.90;54.60;;;;;;4960722;28;19921;-72
2022/09/04 11:53:32;;;;;;;;;;;33.50;55.30;;;;;;4988857;28;19929;-72
2022/09/04 11:56:05;;;;;;;;;;;33.20;55.40;;;;;;4986688;28;19952;-72
2022/09/04 11:58:47;;;;;;;;;;;33.30;55.50;;;;;;4991999;28;19928;-71
2022/09/04 12:01:22;;;;;;;;;;;32.80;55.50;;;;;;4975710;28;19949;-70
2022/09/04 12:04:21;;;;;;;;;;;33.30;55.90;;;;;;4988049;28;19969;-72
2022/09/04 12:06:57;;;;;;;;;;;33.40;55.30;;;;;;4976585;28;20000;-71
2022/09/04 12:09:32;;;;;;;;;;;33.70;55.10;;;;;;4988650;28;20378;-72
2022/09/04 12:12:15;;;;;;;;;;;34.10;55.20;;;;;;4972172;28;19925;-73
2022/09/04 12:14:49;;;;;;;;;;;34.20;55.20;;;;;;4974766;28;20301;-72
2022/09/04 12:17:26;;;;;;;;;;;34.70;54.90;;;;;;4975796;28;19977;-73
2022/09/04 12:20:16;;;;;;;;;;;34.70;54.90;;;;;;4990010;28;19984;-72
2022/09/04 12:23:01;;;;;;;;;;;34.90;54.80;;;;;;4992517;28;19937;-74
2022/09/04 12:25:48;;;;;;;;;;;35.00;54.80;;;;;;4970533;28;19925;-73
2022/09/04 12:28:32;;;;;;;;;;;34.80;54.20;;;;;;4986705;28;19926;-73
2022/09/04 12:31:06;;;;;;;;;;;34.70;54.80;;;;;;4972353;28;19940;-72
2022/09/04 12:33:57;;;;;;;;;;;34.50;54.40;;;;;;4986791;28;19981;-73
2022/09/04 12:36:37;;;;;;;;;;;34.40;54.70;;;;;;4984136;28;19969;-72
2022/09/04 12:39:20;;;;;;;;;;;34.00;54.60;;;;;;4968565;28;20457;-72
2022/09/04 12:41:53;;;;;;;;;;;33.80;54.80;;;;;;4987176;28;19922;-73
2022/09/04 12:44:25;;;;;;;;;;;34.40;55.40;;;;;;4974232;28;19980;-72
2022/09/04 12:46:59;;;;;;;;;;;34.70;55.00;;;;;;4986391;28;19980;-72
2022/09/04 12:49:36;;;;;;;;;;;34.60;54.60;;;;;;4989143;28;19922;-71
2022/09/04 12:52:07;;;;;;;;;;;35.00;54.90;;;;;;4976456;28;19965;-73
2022/09/04 12:54:37;;;;;;;;;;;35.00;55.00;;;;;;4974764;28;19957;-70
2022/09/04 12:57:15;;;;;;;;;;;35.70;54.60;;;;;;4974508;28;19968;-72
2022/09/04 12:59:54;;;;;;;;;;;35.70;54.20;;;;;;4972353;28;19925;-72
2022/09/04 13:02:30;;;;;;;;;;;36.00;53.90;;;;;;4986933;28;20293;-71
2022/09/04 13:05:02;;;;;;;;;;;36.10;53.40;;;;;;4985838;28;19925;-72
2022/09/04 13:07:33;;;;;;;;;;;35.60;53.30;;;;;;4974755;28;19984;-72
2022/09/04 13:10:06;;;;;;;;;;;35.80;53.80;;;;;;4985306;28;19977;-72
2022/09/04 13:12:40;;;;;;;;;;;35.20;53.90;;;;;;4986065;28;19925;-72
2022/09/04 13:15:18;;;;;;;;;;;34.90;53.80;;;;;;4973067;28;20004;-73
2022/09/04 13:17:50;;;;;;;;;;;35.10;54.50;;;;;;4976703;28;19927;-72
2022/09/04 13:20:21;;;;;;;;;;;35.10;54.20;;;;;;4973296;28;19926;-71
2022/09/04 13:22:54;;;;;;;;;;;35.50;54.40;;;;;;4985739;28;19926;-72
2022/09/04 13:25:26;;;;;;;;;;;35.70;54.20;;;;;;4972651;28;19928;-72
2022/09/04 13:28:01;;;;;;;;;;;35.90;53.80;;;;;;4969090;28;19965;-73
2022/09/04 13:30:29;;;;;;;;;;;36.30;53.70;;;;;;4971458;28;19930;-72
2022/09/04 13:33:09;;;;;;;;;;;36.70;53.30;;;;;;4989973;28;20024;-72
2022/09/04 13:35:46;;;;;;;;;;;36.50;53.00;;;;;;4986247;28;19921;-73
2022/09/04 13:38:27;;;;;;;;;;;36.60;53.50;;;;;;4973453;28;20713;-73
2022/09/04 13:41:07;;;;;;;;;;;36.40;53.20;;;;;;4974296;28;20458;-73
2022/09/04 13:43:43;;;;;;;;;;;36.20;53.20;;;;;;4987611;28;19933;-72
2022/09/04 13:46:12;;;;;;;;;;;35.80;53.20;;;;;;4974503;28;19921;-73
2022/09/04 13:48:42;;;;;;;;;;;35.80;53.60;;;;;;4990245;28;19983;-73
2022/09/04 13:51:12;;;;;;;;;;;35.40;53.60;;;;;;4973638;28;19921;-73
2022/09/04 13:53:43;;;;;;;;;;;35.20;54.00;;;;;;4990439;28;19981;-73
2022/09/04 13:56:12;;;;;;;;;;;35.20;54.60;;;;;;4987990;28;19969;-73
2022/09/04 13:58:43;;;;;;;;;;;35.10;54.30;;;;;;4970205;28;19973;-73
2022/09/04 14:01:12;;;;;;;;;;;34.70;53.80;;;;;;4988361;28;19972;-73
2022/09/04 14:03:40;;;;;;;;;;;34.70;54.80;;;;;;4985716;28;19929;-72
2022/09/04 14:06:08;;;;;;;;;;;34.60;54.50;;;;;;4971769;28;19972;-73
2022/09/04 14:08:35;;;;;;;;;;;34.50;54.50;;;;;;4972120;28;19968;-73
2022/09/04 14:11:20;;;;;;;;;;;34.40;54.80;;;;;;4990323;28;19929;-72
2022/09/04 14:14:02;;;;;;;;;;;34.10;54.80;;;;;;4974255;28;19921;-72
2022/09/04 14:16:32;;;;;;;;;;;33.70;55.00;;;;;;4987745;28;19933;-73
2022/09/04 14:19:20;;;;;;;;;;;33.90;55.20;;;;;;4972029;28;19932;-73
2022/09/04 14:21:56;;;;;;;;;;;34.00;55.30;;;;;;4979497;28;19957;-72
2022/09/04 14:24:31;;;;;;;;;;;34.20;55.20;;;;;;4973833;28;20520;-73
2022/09/04 14:27:03;;;;;;;;;;;34.10;55.20;;;;;;4972992;28;20024;-72
2022/09/04 14:29:36;;;;;;;;;;;34.20;55.10;;;;;;4992358;28;19925;-73
2022/09/04 14:32:09;;;;;;;;;;;34.10;54.70;;;;;;4974416;28;19980;-72
2022/09/04 14:34:42;;;;;;;;;;;34.30;54.90;;;;;;4974769;28;19932;-72
2022/09/04 14:37:18;;;;;;;;;;;34.30;55.20;;;;;;4974655;28;19968;-72
2022/09/04 14:39:47;;;;;;;;;;;33.70;55.50;;;;;;4973240;28;20318;-72
2022/09/04 14:42:31;;;;;;;;;;;34.20;55.70;;;;;;4986297;28;20007;-73
2022/09/04 14:45:08;;;;;;;;;;;34.50;55.30;;;;;;4986042;28;19982;-72
2022/09/04 14:47:38;;;;;;;;;;;34.10;54.60;;;;;;4972693;28;19926;-72
2022/09/04 14:50:07;;;;;;;;;;;33.90;55.20;;;;;;4991541;28;20345;-73
2022/09/04 14:52:38;;;;;;;;;;;34.10;55.20;;;;;;4986409;28;19976;-73
2022/09/04 14:55:06;;;;;;;;;;;33.60;55.70;;;;;;4983827;28;19988;-73
2022/09/04 14:57:36;;;;;;;;;;;32.90;55.70;;;;;;4974143;28;19975;-72
2022/09/04 15:00:10;;;;;;;;;;;32.20;56.50;;;;;;4991876;28;19960;-72
2022/09/04 15:02:41;;;;;;;;;;;31.60;57.50;;;;;;4985736;28;19925;-72
2022/09/04 15:05:14;;;;;;;;;;;31.30;57.80;;;;;;4980788;28;20061;-72